sensor_id;sensor_type;location;lat;lon;timestamp;P1;durP1;ratioP1;P2;durP2;ratioP2
84858;SDS011;75115;42.984;23.244;2024-02-21T00:01:05;10.02;;;4.57;;
84858;SDS011;75115;42.984;23.244;2024-02-21T00:03:31;6.82;;;4.13;;
84858;SDS011;75115;42.984;23.244;2024-02-21T00:05:56;7.72;;;3.72;;
84858;SDS011;75115;42.984;23.244;2024-02-21T00:08:22;7.95;;;4.45;;
84858;SDS011;75115;42.984;23.244;2024-02-21T00:10:47;5.32;;;3.50;;
84858;SDS011;75115;42.984;23.244;2024-02-21T00:13:13;6.38;;;3.88;;
84858;SDS011;75115;42.984;23.244;2024-02-21T00:15:38;6.32;;;4.10;;
84858;SDS011;75115;42.984;23.244;2024-02-21T00:18:04;7.85;;;3.85;;
84858;SDS011;75115;42.984;23.244;2024-02-21T00:20:30;8.23;;;3.95;;
84858;SDS011;75115;42.984;23.244;2024-02-21T00:22:55;5.45;;;3.80;;
84858;SDS011;75115;42.984;23.244;2024-02-21T00:25:21;6.15;;;3.08;;
84858;SDS011;75115;42.984;23.244;2024-02-21T00:27:46;6.72;;;3.80;;
84858;SDS011;75115;42.984;23.244;2024-02-21T00:30:12;5.57;;;3.47;;
84858;SDS011;75115;42.984;23.244;2024-02-21T00:32:37;5.18;;;3.10;;
84858;SDS011;75115;42.984;23.244;2024-02-21T00:35:03;5.05;;;3.38;;
84858;SDS011;75115;42.984;23.244;2024-02-21T00:37:28;6.53;;;3.53;;
84858;SDS011;75115;42.984;23.244;2024-02-21T00:39:54;5.03;;;3.45;;
84858;SDS011;75115;42.984;23.244;2024-02-21T00:42:19;4.85;;;2.88;;
84858;SDS011;75115;42.984;23.244;2024-02-21T00:44:45;4.82;;;3.20;;
84858;SDS011;75115;42.984;23.244;2024-02-21T00:47:10;8.35;;;3.45;;
84858;SDS011;75115;42.984;23.244;2024-02-21T00:49:36;5.32;;;3.83;;
84858;SDS011;75115;42.984;23.244;2024-02-21T00:52:01;4.07;;;2.72;;
84858;SDS011;75115;42.984;23.244;2024-02-21T00:54:26;5.10;;;3.05;;
84858;SDS011;75115;42.984;23.244;2024-02-21T00:56:52;9.48;;;4.60;;
84858;SDS011;75115;42.984;23.244;2024-02-21T00:59:17;6.32;;;3.65;;
84858;SDS011;75115;42.984;23.244;2024-02-21T01:01:43;5.63;;;3.40;;
84858;SDS011;75115;42.984;23.244;2024-02-21T01:04:11;9.23;;;4.47;;
84858;SDS011;75115;42.984;23.244;2024-02-21T01:09:02;13.03;;;5.90;;
84858;SDS011;75115;42.984;23.244;2024-02-21T01:11:27;10.70;;;4.40;;
84858;SDS011;75115;42.984;23.244;2024-02-21T01:13:52;7.28;;;3.85;;
84858;SDS011;75115;42.984;23.244;2024-02-21T01:16:18;8.50;;;3.50;;
84858;SDS011;75115;42.984;23.244;2024-02-21T01:18:43;8.55;;;4.28;;
84858;SDS011;75115;42.984;23.244;2024-02-21T01:21:09;13.43;;;5.80;;
84858;SDS011;75115;42.984;23.244;2024-02-21T01:23:35;9.55;;;4.72;;
84858;SDS011;75115;42.984;23.244;2024-02-21T01:26:01;8.55;;;4.78;;
84858;SDS011;75115;42.984;23.244;2024-02-21T01:28:27;8.32;;;4.13;;
84858;SDS011;75115;42.984;23.244;2024-02-21T01:30:53;15.32;;;6.97;;
84858;SDS011;75115;42.984;23.244;2024-02-21T01:33:18;12.30;;;6.57;;
84858;SDS011;75115;42.984;23.244;2024-02-21T01:35:44;9.85;;;5.10;;
84858;SDS011;75115;42.984;23.244;2024-02-21T01:38:09;7.15;;;3.55;;
84858;SDS011;75115;42.984;23.244;2024-02-21T01:40:35;6.35;;;2.90;;
84858;SDS011;75115;42.984;23.244;2024-02-21T01:43:02;7.43;;;3.03;;
84858;SDS011;75115;42.984;23.244;2024-02-21T01:45:27;4.55;;;3.28;;
84858;SDS011;75115;42.984;23.244;2024-02-21T01:47:53;5.50;;;2.80;;
84858;SDS011;75115;42.984;23.244;2024-02-21T01:50:18;5.05;;;3.17;;
84858;SDS011;75115;42.984;23.244;2024-02-21T01:52:44;8.00;;;4.20;;
84858;SDS011;75115;42.984;23.244;2024-02-21T01:55:13;8.75;;;4.68;;
84858;SDS011;75115;42.984;23.244;2024-02-21T01:57:40;7.65;;;5.07;;
84858;SDS011;75115;42.984;23.244;2024-02-21T02:00:07;5.45;;;3.00;;
84858;SDS011;75115;42.984;23.244;2024-02-21T02:02:35;5.05;;;3.70;;
84858;SDS011;75115;42.984;23.244;2024-02-21T02:05:02;6.32;;;3.35;;
84858;SDS011;75115;42.984;23.244;2024-02-21T02:07:27;10.25;;;4.53;;
84858;SDS011;75115;42.984;23.244;2024-02-21T02:09:53;6.22;;;3.17;;
84858;SDS011;75115;42.984;23.244;2024-02-21T02:12:18;9.10;;;4.47;;
84858;SDS011;75115;42.984;23.244;2024-02-21T02:14:44;11.32;;;5.55;;
84858;SDS011;75115;42.984;23.244;2024-02-21T02:17:09;10.35;;;5.30;;
84858;SDS011;75115;42.984;23.244;2024-02-21T02:19:35;9.32;;;5.03;;
84858;SDS011;75115;42.984;23.244;2024-02-21T02:22:07;9.57;;;5.28;;
84858;SDS011;75115;42.984;23.244;2024-02-21T02:24:39;8.73;;;5.15;;
84858;SDS011;75115;42.984;23.244;2024-02-21T02:27:04;11.80;;;6.03;;
84858;SDS011;75115;42.984;23.244;2024-02-21T02:29:31;13.60;;;7.18;;
84858;SDS011;75115;42.984;23.244;2024-02-21T02:31:57;11.95;;;5.80;;
84858;SDS011;75115;42.984;23.244;2024-02-21T02:34:22;11.80;;;5.28;;
84858;SDS011;75115;42.984;23.244;2024-02-21T02:36:48;17.30;;;7.50;;
84858;SDS011;75115;42.984;23.244;2024-02-21T02:39:14;17.67;;;8.80;;
84858;SDS011;75115;42.984;23.244;2024-02-21T02:41:39;10.77;;;5.15;;
84858;SDS011;75115;42.984;23.244;2024-02-21T02:44:05;9.95;;;4.95;;
84858;SDS011;75115;42.984;23.244;2024-02-21T02:46:30;15.52;;;7.72;;
84858;SDS011;75115;42.984;23.244;2024-02-21T02:48:56;14.35;;;7.32;;
84858;SDS011;75115;42.984;23.244;2024-02-21T02:51:21;11.75;;;5.97;;
84858;SDS011;75115;42.984;23.244;2024-02-21T02:53:46;13.45;;;6.15;;
84858;SDS011;75115;42.984;23.244;2024-02-21T02:56:15;15.75;;;5.63;;
84858;SDS011;75115;42.984;23.244;2024-02-21T02:58:42;11.13;;;5.90;;
84858;SDS011;75115;42.984;23.244;2024-02-21T03:01:08;12.07;;;5.80;;
84858;SDS011;75115;42.984;23.244;2024-02-21T03:03:33;16.58;;;7.90;;
84858;SDS011;75115;42.984;23.244;2024-02-21T03:05:58;11.93;;;5.97;;
84858;SDS011;75115;42.984;23.244;2024-02-21T03:08:24;10.73;;;5.53;;
84858;SDS011;75115;42.984;23.244;2024-02-21T03:10:49;10.52;;;5.28;;
84858;SDS011;75115;42.984;23.244;2024-02-21T03:13:14;11.98;;;6.38;;
84858;SDS011;75115;42.984;23.244;2024-02-21T03:15:40;9.90;;;5.53;;
84858;SDS011;75115;42.984;23.244;2024-02-21T03:18:05;9.40;;;5.50;;
84858;SDS011;75115;42.984;23.244;2024-02-21T03:20:31;8.57;;;5.00;;
84858;SDS011;75115;42.984;23.244;2024-02-21T03:22:57;13.52;;;6.00;;
84858;SDS011;75115;42.984;23.244;2024-02-21T03:25:22;10.10;;;5.68;;
84858;SDS011;75115;42.984;23.244;2024-02-21T03:27:48;29.88;;;14.02;;
84858;SDS011;75115;42.984;23.244;2024-02-21T03:30:13;17.80;;;9.45;;
84858;SDS011;75115;42.984;23.244;2024-02-21T03:32:39;15.45;;;8.57;;
84858;SDS011;75115;42.984;23.244;2024-02-21T03:35:04;13.32;;;7.03;;
84858;SDS011;75115;42.984;23.244;2024-02-21T03:37:30;11.45;;;6.60;;
84858;SDS011;75115;42.984;23.244;2024-02-21T03:39:55;20.42;;;10.18;;
84858;SDS011;75115;42.984;23.244;2024-02-21T03:42:21;20.83;;;9.93;;
84858;SDS011;75115;42.984;23.244;2024-02-21T03:44:46;27.20;;;11.38;;
84858;SDS011;75115;42.984;23.244;2024-02-21T03:47:12;20.30;;;9.70;;
84858;SDS011;75115;42.984;23.244;2024-02-21T03:49:37;22.00;;;10.45;;
84858;SDS011;75115;42.984;23.244;2024-02-21T03:52:03;19.88;;;10.35;;
84858;SDS011;75115;42.984;23.244;2024-02-21T03:54:28;18.88;;;10.32;;
84858;SDS011;75115;42.984;23.244;2024-02-21T03:56:54;24.80;;;13.52;;
84858;SDS011;75115;42.984;23.244;2024-02-21T03:59:19;24.52;;;10.73;;
84858;SDS011;75115;42.984;23.244;2024-02-21T04:01:44;18.73;;;8.40;;
84858;SDS011;75115;42.984;23.244;2024-02-21T04:04:10;20.85;;;10.50;;
84858;SDS011;75115;42.984;23.244;2024-02-21T04:06:35;17.25;;;9.15;;
84858;SDS011;75115;42.984;23.244;2024-02-21T04:09:01;32.80;;;16.10;;
84858;SDS011;75115;42.984;23.244;2024-02-21T04:11:27;39.05;;;18.67;;
84858;SDS011;75115;42.984;23.244;2024-02-21T04:13:52;33.85;;;16.67;;
84858;SDS011;75115;42.984;23.244;2024-02-21T04:16:17;33.67;;;16.02;;
84858;SDS011;75115;42.984;23.244;2024-02-21T04:18:43;26.80;;;14.43;;
84858;SDS011;75115;42.984;23.244;2024-02-21T04:21:09;31.60;;;15.90;;
84858;SDS011;75115;42.984;23.244;2024-02-21T04:23:35;32.28;;;15.15;;
84858;SDS011;75115;42.984;23.244;2024-02-21T04:26:00;29.10;;;14.68;;
84858;SDS011;75115;42.984;23.244;2024-02-21T04:28:26;22.42;;;11.75;;
84858;SDS011;75115;42.984;23.244;2024-02-21T04:30:51;15.02;;;8.95;;
84858;SDS011;75115;42.984;23.244;2024-02-21T04:33:17;19.45;;;9.98;;
84858;SDS011;75115;42.984;23.244;2024-02-21T04:35:42;17.58;;;7.97;;
84858;SDS011;75115;42.984;23.244;2024-02-21T04:38:07;15.57;;;6.72;;
84858;SDS011;75115;42.984;23.244;2024-02-21T04:40:33;10.90;;;6.03;;
84858;SDS011;75115;42.984;23.244;2024-02-21T04:42:58;12.02;;;6.20;;
84858;SDS011;75115;42.984;23.244;2024-02-21T04:45:24;12.88;;;6.15;;
84858;SDS011;75115;42.984;23.244;2024-02-21T04:47:49;9.77;;;5.45;;
84858;SDS011;75115;42.984;23.244;2024-02-21T04:50:15;31.42;;;12.45;;
84858;SDS011;75115;42.984;23.244;2024-02-21T04:52:40;22.40;;;11.90;;
84858;SDS011;75115;42.984;23.244;2024-02-21T04:55:06;18.67;;;10.50;;
84858;SDS011;75115;42.984;23.244;2024-02-21T04:57:32;13.85;;;7.53;;
84858;SDS011;75115;42.984;23.244;2024-02-21T04:59:57;18.00;;;9.52;;
84858;SDS011;75115;42.984;23.244;2024-02-21T05:02:23;20.85;;;9.45;;
84858;SDS011;75115;42.984;23.244;2024-02-21T05:04:49;15.05;;;8.27;;
84858;SDS011;75115;42.984;23.244;2024-02-21T05:07:15;26.27;;;11.18;;
84858;SDS011;75115;42.984;23.244;2024-02-21T05:09:44;18.08;;;7.57;;
84858;SDS011;75115;42.984;23.244;2024-02-21T05:12:10;11.70;;;6.40;;
84858;SDS011;75115;42.984;23.244;2024-02-21T05:14:35;8.82;;;4.97;;
84858;SDS011;75115;42.984;23.244;2024-02-21T05:17:01;8.45;;;4.80;;
84858;SDS011;75115;42.984;23.244;2024-02-21T05:19:26;9.70;;;5.25;;
84858;SDS011;75115;42.984;23.244;2024-02-21T05:21:52;9.50;;;5.63;;
84858;SDS011;75115;42.984;23.244;2024-02-21T05:24:17;10.38;;;5.20;;
84858;SDS011;75115;42.984;23.244;2024-02-21T05:26:42;10.02;;;5.95;;
84858;SDS011;75115;42.984;23.244;2024-02-21T05:29:08;10.07;;;5.35;;
84858;SDS011;75115;42.984;23.244;2024-02-21T05:34:17;12.90;;;6.00;;
84858;SDS011;75115;42.984;23.244;2024-02-21T05:36:43;13.82;;;5.85;;
84858;SDS011;75115;42.984;23.244;2024-02-21T05:39:09;9.13;;;5.78;;
84858;SDS011;75115;42.984;23.244;2024-02-21T05:41:34;11.30;;;5.60;;
84858;SDS011;75115;42.984;23.244;2024-02-21T05:43:59;19.25;;;8.52;;
84858;SDS011;75115;42.984;23.244;2024-02-21T05:46:27;25.00;;;9.73;;
84858;SDS011;75115;42.984;23.244;2024-02-21T05:48:52;17.38;;;8.27;;
84858;SDS011;75115;42.984;23.244;2024-02-21T05:51:18;10.05;;;4.95;;
84858;SDS011;75115;42.984;23.244;2024-02-21T05:53:43;12.02;;;5.32;;
84858;SDS011;75115;42.984;23.244;2024-02-21T05:56:12;16.17;;;8.75;;
84858;SDS011;75115;42.984;23.244;2024-02-21T05:58:38;14.93;;;7.63;;
84858;SDS011;75115;42.984;23.244;2024-02-21T06:01:04;9.82;;;6.32;;
84858;SDS011;75115;42.984;23.244;2024-02-21T06:03:31;12.95;;;5.40;;
84858;SDS011;75115;42.984;23.244;2024-02-21T06:05:57;11.88;;;5.85;;
84858;SDS011;75115;42.984;23.244;2024-02-21T06:08:22;13.48;;;8.93;;
84858;SDS011;75115;42.984;23.244;2024-02-21T06:10:48;27.00;;;16.38;;
84858;SDS011;75115;42.984;23.244;2024-02-21T06:13:14;29.40;;;15.90;;
84858;SDS011;75115;42.984;23.244;2024-02-21T06:15:39;13.77;;;8.07;;
84858;SDS011;75115;42.984;23.244;2024-02-21T06:18:05;10.50;;;5.72;;
84858;SDS011;75115;42.984;23.244;2024-02-21T06:20:30;8.43;;;4.97;;
84858;SDS011;75115;42.984;23.244;2024-02-21T06:22:56;10.27;;;6.63;;
84858;SDS011;75115;42.984;23.244;2024-02-21T06:25:22;9.27;;;6.97;;
84858;SDS011;75115;42.984;23.244;2024-02-21T06:27:47;17.00;;;8.70;;
84858;SDS011;75115;42.984;23.244;2024-02-21T06:30:13;10.20;;;5.38;;
84858;SDS011;75115;42.984;23.244;2024-02-21T06:32:38;9.90;;;5.35;;
84858;SDS011;75115;42.984;23.244;2024-02-21T06:35:04;12.25;;;6.00;;
84858;SDS011;75115;42.984;23.244;2024-02-21T06:37:30;31.77;;;14.05;;
84858;SDS011;75115;42.984;23.244;2024-02-21T06:39:57;16.80;;;7.88;;
84858;SDS011;75115;42.984;23.244;2024-02-21T06:42:24;18.23;;;9.50;;
84858;SDS011;75115;42.984;23.244;2024-02-21T06:44:50;24.02;;;13.15;;
84858;SDS011;75115;42.984;23.244;2024-02-21T06:47:15;15.98;;;9.05;;
84858;SDS011;75115;42.984;23.244;2024-02-21T06:49:40;15.98;;;8.88;;
84858;SDS011;75115;42.984;23.244;2024-02-21T06:52:06;9.57;;;6.13;;
84858;SDS011;75115;42.984;23.244;2024-02-21T06:54:32;6.72;;;4.40;;
84858;SDS011;75115;42.984;23.244;2024-02-21T06:56:57;7.28;;;4.32;;
84858;SDS011;75115;42.984;23.244;2024-02-21T06:59:23;8.63;;;5.63;;
84858;SDS011;75115;42.984;23.244;2024-02-21T07:01:48;29.30;;;16.40;;
84858;SDS011;75115;42.984;23.244;2024-02-21T07:04:14;12.10;;;7.97;;
84858;SDS011;75115;42.984;23.244;2024-02-21T07:06:40;7.25;;;4.53;;
84858;SDS011;75115;42.984;23.244;2024-02-21T07:09:05;8.18;;;5.50;;
84858;SDS011;75115;42.984;23.244;2024-02-21T07:11:31;5.40;;;4.68;;
84858;SDS011;75115;42.984;23.244;2024-02-21T07:13:56;6.85;;;4.50;;
84858;SDS011;75115;42.984;23.244;2024-02-21T07:16:22;12.00;;;7.20;;
84858;SDS011;75115;42.984;23.244;2024-02-21T07:18:47;7.72;;;5.30;;
84858;SDS011;75115;42.984;23.244;2024-02-21T07:21:12;21.15;;;12.93;;
84858;SDS011;75115;42.984;23.244;2024-02-21T07:23:40;16.20;;;10.35;;
84858;SDS011;75115;42.984;23.244;2024-02-21T07:26:07;9.20;;;5.97;;
84858;SDS011;75115;42.984;23.244;2024-02-21T07:28:32;6.70;;;5.00;;
84858;SDS011;75115;42.984;23.244;2024-02-21T07:30:59;8.68;;;6.20;;
84858;SDS011;75115;42.984;23.244;2024-02-21T07:33:24;8.45;;;6.18;;
84858;SDS011;75115;42.984;23.244;2024-02-21T07:35:50;9.00;;;6.05;;
84858;SDS011;75115;42.984;23.244;2024-02-21T07:38:15;8.38;;;6.05;;
84858;SDS011;75115;42.984;23.244;2024-02-21T07:43:09;10.73;;;7.15;;
84858;SDS011;75115;42.984;23.244;2024-02-21T07:45:35;12.85;;;9.45;;
84858;SDS011;75115;42.984;23.244;2024-02-21T07:48:00;12.13;;;9.00;;
84858;SDS011;75115;42.984;23.244;2024-02-21T07:50:26;10.15;;;6.93;;
84858;SDS011;75115;42.984;23.244;2024-02-21T07:52:51;9.27;;;6.40;;
84858;SDS011;75115;42.984;23.244;2024-02-21T07:55:17;10.40;;;6.63;;
84858;SDS011;75115;42.984;23.244;2024-02-21T07:57:42;12.35;;;7.55;;
84858;SDS011;75115;42.984;23.244;2024-02-21T08:00:08;14.88;;;8.65;;
84858;SDS011;75115;42.984;23.244;2024-02-21T08:02:35;14.60;;;8.05;;
84858;SDS011;75115;42.984;23.244;2024-02-21T08:05:00;16.65;;;9.43;;
84858;SDS011;75115;42.984;23.244;2024-02-21T08:07:26;16.30;;;8.35;;
84858;SDS011;75115;42.984;23.244;2024-02-21T08:09:54;11.68;;;7.40;;
84858;SDS011;75115;42.984;23.244;2024-02-21T08:12:19;13.15;;;7.13;;
84858;SDS011;75115;42.984;23.244;2024-02-21T08:14:44;13.35;;;7.22;;
84858;SDS011;75115;42.984;23.244;2024-02-21T08:17:10;15.73;;;6.97;;
84858;SDS011;75115;42.984;23.244;2024-02-21T08:19:36;12.85;;;8.20;;
84858;SDS011;75115;42.984;23.244;2024-02-21T08:22:01;12.75;;;7.72;;
84858;SDS011;75115;42.984;23.244;2024-02-21T08:24:28;12.38;;;6.88;;
84858;SDS011;75115;42.984;23.244;2024-02-21T08:26:53;15.02;;;8.00;;
84858;SDS011;75115;42.984;23.244;2024-02-21T08:29:19;15.60;;;7.90;;
84858;SDS011;75115;42.984;23.244;2024-02-21T08:31:44;14.25;;;7.47;;
84858;SDS011;75115;42.984;23.244;2024-02-21T08:34:09;13.07;;;6.60;;
84858;SDS011;75115;42.984;23.244;2024-02-21T08:36:35;13.23;;;7.10;;
84858;SDS011;75115;42.984;23.244;2024-02-21T08:39:01;11.65;;;6.00;;
84858;SDS011;75115;42.984;23.244;2024-02-21T08:41:30;12.68;;;7.10;;
84858;SDS011;75115;42.984;23.244;2024-02-21T08:43:57;12.45;;;7.40;;
84858;SDS011;75115;42.984;23.244;2024-02-21T08:46:22;16.88;;;9.05;;
84858;SDS011;75115;42.984;23.244;2024-02-21T08:48:49;18.70;;;8.95;;
84858;SDS011;75115;42.984;23.244;2024-02-21T08:51:16;16.83;;;9.30;;
84858;SDS011;75115;42.984;23.244;2024-02-21T08:53:41;17.17;;;8.25;;
84858;SDS011;75115;42.984;23.244;2024-02-21T08:56:07;11.07;;;7.15;;
84858;SDS011;75115;42.984;23.244;2024-02-21T08:58:33;11.95;;;7.47;;
84858;SDS011;75115;42.984;23.244;2024-02-21T09:00:58;12.45;;;7.18;;
84858;SDS011;75115;42.984;23.244;2024-02-21T09:03:24;12.80;;;8.02;;
84858;SDS011;75115;42.984;23.244;2024-02-21T09:05:50;12.25;;;7.47;;
84858;SDS011;75115;42.984;23.244;2024-02-21T09:08:15;14.50;;;7.60;;
84858;SDS011;75115;42.984;23.244;2024-02-21T09:10:41;17.67;;;11.05;;
84858;SDS011;75115;42.984;23.244;2024-02-21T09:13:06;12.60;;;7.35;;
84858;SDS011;75115;42.984;23.244;2024-02-21T09:15:33;14.20;;;7.70;;
84858;SDS011;75115;42.984;23.244;2024-02-21T09:17:59;10.25;;;6.80;;
84858;SDS011;75115;42.984;23.244;2024-02-21T09:20:24;12.43;;;6.88;;
84858;SDS011;75115;42.984;23.244;2024-02-21T09:22:49;11.13;;;6.82;;
84858;SDS011;75115;42.984;23.244;2024-02-21T09:25:15;23.20;;;11.40;;
84858;SDS011;75115;42.984;23.244;2024-02-21T09:27:40;44.35;;;23.63;;
84858;SDS011;75115;42.984;23.244;2024-02-21T09:30:06;15.60;;;8.75;;
84858;SDS011;75115;42.984;23.244;2024-02-21T09:32:32;13.85;;;8.95;;
84858;SDS011;75115;42.984;23.244;2024-02-21T09:34:58;9.90;;;6.40;;
84858;SDS011;75115;42.984;23.244;2024-02-21T09:37:23;10.80;;;6.63;;
84858;SDS011;75115;42.984;23.244;2024-02-21T09:39:49;9.55;;;6.13;;
84858;SDS011;75115;42.984;23.244;2024-02-21T09:42:16;13.23;;;6.47;;
84858;SDS011;75115;42.984;23.244;2024-02-21T09:44:45;10.95;;;6.20;;
84858;SDS011;75115;42.984;23.244;2024-02-21T09:47:17;11.30;;;6.10;;
84858;SDS011;75115;42.984;23.244;2024-02-21T09:49:47;10.02;;;6.00;;
84858;SDS011;75115;42.984;23.244;2024-02-21T09:52:12;10.52;;;6.57;;
84858;SDS011;75115;42.984;23.244;2024-02-21T09:54:40;11.07;;;6.00;;
84858;SDS011;75115;42.984;23.244;2024-02-21T09:57:09;10.05;;;6.18;;
84858;SDS011;75115;42.984;23.244;2024-02-21T09:59:35;8.10;;;5.13;;
84858;SDS011;75115;42.984;23.244;2024-02-21T10:02:00;11.50;;;6.10;;
84858;SDS011;75115;42.984;23.244;2024-02-21T10:04:26;8.80;;;5.72;;
84858;SDS011;75115;42.984;23.244;2024-02-21T10:06:53;9.25;;;6.18;;
84858;SDS011;75115;42.984;23.244;2024-02-21T10:09:23;13.40;;;7.65;;
84858;SDS011;75115;42.984;23.244;2024-02-21T10:11:49;11.40;;;7.15;;
84858;SDS011;75115;42.984;23.244;2024-02-21T10:14:16;11.98;;;6.57;;
84858;SDS011;75115;42.984;23.244;2024-02-21T10:16:43;11.50;;;7.20;;
84858;SDS011;75115;42.984;23.244;2024-02-21T10:19:19;14.10;;;7.13;;
84858;SDS011;75115;42.984;23.244;2024-02-21T10:21:58;12.32;;;7.80;;
84858;SDS011;75115;42.984;23.244;2024-02-21T10:24:34;11.10;;;5.82;;
84858;SDS011;75115;42.984;23.244;2024-02-21T10:27:03;19.98;;;11.45;;
84858;SDS011;75115;42.984;23.244;2024-02-21T10:29:36;19.88;;;12.68;;
84858;SDS011;75115;42.984;23.244;2024-02-21T10:32:05;20.02;;;11.98;;
84858;SDS011;75115;42.984;23.244;2024-02-21T10:34:38;17.20;;;8.95;;
84858;SDS011;75115;42.984;23.244;2024-02-21T10:37:05;14.90;;;8.80;;
84858;SDS011;75115;42.984;23.244;2024-02-21T10:39:32;13.52;;;7.47;;
84858;SDS011;75115;42.984;23.244;2024-02-21T10:41:59;13.30;;;7.45;;
84858;SDS011;75115;42.984;23.244;2024-02-21T10:46:58;9.00;;;5.72;;
84858;SDS011;75115;42.984;23.244;2024-02-21T10:49:25;9.73;;;6.03;;
84858;SDS011;75115;42.984;23.244;2024-02-21T10:55:03;21.13;;;13.07;;
84858;SDS011;75115;42.984;23.244;2024-02-21T10:57:33;10.43;;;6.25;;
84858;SDS011;75115;42.984;23.244;2024-02-21T11:00:01;20.00;;;9.55;;
84858;SDS011;75115;42.984;23.244;2024-02-21T11:02:28;17.25;;;8.80;;
84858;SDS011;75115;42.984;23.244;2024-02-21T11:04:56;11.07;;;6.28;;
84858;SDS011;75115;42.984;23.244;2024-02-21T11:07:23;20.20;;;9.90;;
84858;SDS011;75115;42.984;23.244;2024-02-21T11:09:52;10.27;;;5.38;;
84858;SDS011;75115;42.984;23.244;2024-02-21T11:12:21;22.38;;;10.40;;
84858;SDS011;75115;42.984;23.244;2024-02-21T11:14:47;19.98;;;9.68;;
84858;SDS011;75115;42.984;23.244;2024-02-21T11:17:19;16.85;;;9.93;;
84858;SDS011;75115;42.984;23.244;2024-02-21T11:19:51;10.23;;;6.30;;
84858;SDS011;75115;42.984;23.244;2024-02-21T11:22:17;11.38;;;5.97;;
84858;SDS011;75115;42.984;23.244;2024-02-21T11:24:44;13.88;;;6.78;;
84858;SDS011;75115;42.984;23.244;2024-02-21T11:29:53;16.20;;;8.55;;
84858;SDS011;75115;42.984;23.244;2024-02-21T11:32:21;23.35;;;12.10;;
84858;SDS011;75115;42.984;23.244;2024-02-21T11:34:56;13.70;;;7.60;;
84858;SDS011;75115;42.984;23.244;2024-02-21T11:37:27;8.82;;;5.63;;
84858;SDS011;75115;42.984;23.244;2024-02-21T11:39:57;11.68;;;6.65;;
84858;SDS011;75115;42.984;23.244;2024-02-21T11:42:22;19.30;;;9.02;;
84858;SDS011;75115;42.984;23.244;2024-02-21T11:44:50;13.13;;;6.13;;
84858;SDS011;75115;42.984;23.244;2024-02-21T11:47:15;11.13;;;6.30;;
84858;SDS011;75115;42.984;23.244;2024-02-21T11:49:46;10.05;;;5.95;;
84858;SDS011;75115;42.984;23.244;2024-02-21T11:52:14;11.48;;;6.00;;
84858;SDS011;75115;42.984;23.244;2024-02-21T11:54:40;11.05;;;5.32;;
84858;SDS011;75115;42.984;23.244;2024-02-21T11:57:06;9.35;;;5.50;;
84858;SDS011;75115;42.984;23.244;2024-02-21T11:59:32;11.07;;;5.80;;
84858;SDS011;75115;42.984;23.244;2024-02-21T12:01:58;10.90;;;5.63;;
84858;SDS011;75115;42.984;23.244;2024-02-21T12:04:25;6.60;;;4.57;;
84858;SDS011;75115;42.984;23.244;2024-02-21T12:06:52;5.78;;;3.95;;
84858;SDS011;75115;42.984;23.244;2024-02-21T12:09:18;7.88;;;4.57;;
84858;SDS011;75115;42.984;23.244;2024-02-21T12:11:44;8.55;;;4.38;;
84858;SDS011;75115;42.984;23.244;2024-02-21T12:14:16;5.47;;;3.78;;
84858;SDS011;75115;42.984;23.244;2024-02-21T12:16:41;8.00;;;4.05;;
84858;SDS011;75115;42.984;23.244;2024-02-21T12:19:12;7.80;;;4.13;;
84858;SDS011;75115;42.984;23.244;2024-02-21T12:21:38;6.95;;;4.15;;
84858;SDS011;75115;42.984;23.244;2024-02-21T12:24:13;10.30;;;5.07;;
84858;SDS011;75115;42.984;23.244;2024-02-21T12:26:39;8.73;;;4.65;;
84858;SDS011;75115;42.984;23.244;2024-02-21T12:29:05;10.80;;;5.50;;
84858;SDS011;75115;42.984;23.244;2024-02-21T12:31:31;10.07;;;5.53;;
84858;SDS011;75115;42.984;23.244;2024-02-21T12:33:56;10.32;;;4.88;;
84858;SDS011;75115;42.984;23.244;2024-02-21T12:36:22;10.23;;;5.30;;
84858;SDS011;75115;42.984;23.244;2024-02-21T12:38:47;8.65;;;4.55;;
84858;SDS011;75115;42.984;23.244;2024-02-21T12:41:14;12.55;;;5.88;;
84858;SDS011;75115;42.984;23.244;2024-02-21T12:43:39;10.65;;;6.40;;
84858;SDS011;75115;42.984;23.244;2024-02-21T12:46:05;7.95;;;5.07;;
84858;SDS011;75115;42.984;23.244;2024-02-21T12:48:32;19.63;;;10.52;;
84858;SDS011;75115;42.984;23.244;2024-02-21T12:50:58;24.83;;;13.88;;
84858;SDS011;75115;42.984;23.244;2024-02-21T12:53:23;15.45;;;8.55;;
84858;SDS011;75115;42.984;23.244;2024-02-21T12:55:49;20.00;;;10.10;;
84858;SDS011;75115;42.984;23.244;2024-02-21T12:58:15;15.70;;;9.65;;
84858;SDS011;75115;42.984;23.244;2024-02-21T13:00:41;8.35;;;5.18;;
84858;SDS011;75115;42.984;23.244;2024-02-21T13:03:07;11.05;;;5.80;;
84858;SDS011;75115;42.984;23.244;2024-02-21T13:05:34;13.32;;;7.97;;
84858;SDS011;75115;42.984;23.244;2024-02-21T13:08:00;14.95;;;7.47;;
84858;SDS011;75115;42.984;23.244;2024-02-21T13:10:26;16.17;;;8.32;;
84858;SDS011;75115;42.984;23.244;2024-02-21T13:12:52;18.35;;;9.00;;
84858;SDS011;75115;42.984;23.244;2024-02-21T13:15:17;17.35;;;9.35;;
84858;SDS011;75115;42.984;23.244;2024-02-21T13:17:45;17.38;;;8.70;;
84858;SDS011;75115;42.984;23.244;2024-02-21T13:20:11;18.67;;;9.95;;
84858;SDS011;75115;42.984;23.244;2024-02-21T13:22:37;15.43;;;8.77;;
84858;SDS011;75115;42.984;23.244;2024-02-21T13:25:03;21.00;;;11.77;;
84858;SDS011;75115;42.984;23.244;2024-02-21T13:27:29;14.10;;;8.77;;
84858;SDS011;75115;42.984;23.244;2024-02-21T13:29:55;12.15;;;7.93;;
84858;SDS011;75115;42.984;23.244;2024-02-21T13:32:20;16.00;;;9.00;;
84858;SDS011;75115;42.984;23.244;2024-02-21T13:34:46;24.55;;;11.68;;
84858;SDS011;75115;42.984;23.244;2024-02-21T13:37:11;30.10;;;13.43;;
84858;SDS011;75115;42.984;23.244;2024-02-21T13:39:37;29.33;;;15.82;;
84858;SDS011;75115;42.984;23.244;2024-02-21T13:42:02;39.03;;;21.38;;
84858;SDS011;75115;42.984;23.244;2024-02-21T13:44:30;18.05;;;10.15;;
84858;SDS011;75115;42.984;23.244;2024-02-21T13:46:56;24.40;;;14.00;;
84858;SDS011;75115;42.984;23.244;2024-02-21T13:49:21;19.17;;;10.63;;
84858;SDS011;75115;42.984;23.244;2024-02-21T13:51:46;15.35;;;8.75;;
84858;SDS011;75115;42.984;23.244;2024-02-21T13:54:12;16.52;;;9.35;;
84858;SDS011;75115;42.984;23.244;2024-02-21T13:56:41;14.23;;;7.50;;
84858;SDS011;75115;42.984;23.244;2024-02-21T13:59:07;17.20;;;8.27;;
84858;SDS011;75115;42.984;23.244;2024-02-21T14:01:33;13.13;;;7.53;;
84858;SDS011;75115;42.984;23.244;2024-02-21T14:03:58;23.88;;;11.82;;
84858;SDS011;75115;42.984;23.244;2024-02-21T14:06:24;29.90;;;14.13;;
84858;SDS011;75115;42.984;23.244;2024-02-21T14:08:49;22.98;;;10.80;;
84858;SDS011;75115;42.984;23.244;2024-02-21T14:11:15;30.98;;;13.63;;
84858;SDS011;75115;42.984;23.244;2024-02-21T14:13:40;42.28;;;20.92;;
84858;SDS011;75115;42.984;23.244;2024-02-21T14:16:09;32.67;;;15.57;;
84858;SDS011;75115;42.984;23.244;2024-02-21T14:18:40;19.77;;;9.90;;
84858;SDS011;75115;42.984;23.244;2024-02-21T14:21:07;24.23;;;11.85;;
84858;SDS011;75115;42.984;23.244;2024-02-21T14:23:35;21.10;;;10.70;;
84858;SDS011;75115;42.984;23.244;2024-02-21T14:26:02;19.85;;;10.13;;
84858;SDS011;75115;42.984;23.244;2024-02-21T14:28:28;20.02;;;10.63;;
84858;SDS011;75115;42.984;23.244;2024-02-21T14:30:53;18.27;;;9.60;;
84858;SDS011;75115;42.984;23.244;2024-02-21T14:33:22;31.58;;;15.63;;